createdAt,value
2023-02-27T00:02:16.588Z,8.13
2023-02-27T00:04:43.018Z,8.93
2023-02-27T00:07:09.582Z,8.40
2023-02-27T00:09:36.041Z,7.53
2023-02-27T00:12:02.534Z,6.57
2023-02-27T00:14:28.961Z,9.10
2023-02-27T00:16:55.421Z,7.13
2023-02-27T00:19:21.869Z,7.30
2023-02-27T00:21:48.347Z,5.60
2023-02-27T00:24:14.884Z,8.07
2023-02-27T00:26:41.305Z,7.27
2023-02-27T00:29:07.921Z,8.97
2023-02-27T00:31:34.790Z,5.97
2023-02-27T00:34:01.311Z,7.17
2023-02-27T00:36:27.774Z,6.10
2023-02-27T00:38:54.218Z,7.87
2023-02-27T00:41:20.625Z,6.53
2023-02-27T00:43:47.015Z,6.63
2023-02-27T00:46:13.568Z,7.30
2023-02-27T00:48:40.054Z,6.93
2023-02-27T00:51:08.236Z,7.93
2023-02-27T00:53:34.635Z,7.03
2023-02-27T00:56:01.016Z,7.53
2023-02-27T00:58:28.002Z,7.67
2023-02-27T01:00:54.559Z,7.83
2023-02-27T01:03:21.099Z,10.67
2023-02-27T01:05:47.569Z,9.33
2023-02-27T01:08:14.361Z,7.70
2023-02-27T01:10:40.791Z,8.67
2023-02-27T01:13:07.207Z,8.67
2023-02-27T01:15:34.023Z,8.77
2023-02-27T01:18:00.458Z,7.83
2023-02-27T01:20:28.151Z,9.27
2023-02-27T01:22:54.602Z,9.80
2023-02-27T01:25:21.064Z,8.77
2023-02-27T01:27:47.553Z,7.70
2023-02-27T01:30:16.801Z,9.10
2023-02-27T01:32:44.393Z,9.37
2023-02-27T01:35:11.039Z,11.40
2023-02-27T01:37:37.472Z,13.70
2023-02-27T01:40:04.983Z,10.27
2023-02-27T01:42:31.452Z,7.67
2023-02-27T01:45:18.090Z,8.57
2023-02-27T01:47:46.216Z,7.93
2023-02-27T01:50:13.665Z,8.90
2023-02-27T01:52:40.727Z,6.73
2023-02-27T01:55:12.689Z,11.53
2023-02-27T01:57:40.590Z,11.93
2023-02-27T02:00:09.181Z,7.50
2023-02-27T02:02:40.729Z,9.23
2023-02-27T02:05:08.215Z,8.07
2023-02-27T02:07:36.229Z,6.80
2023-02-27T02:10:04.550Z,7.90
2023-02-27T02:12:35.921Z,8.53
2023-02-27T02:15:02.497Z,10.10
2023-02-27T02:17:49.165Z,8.87
2023-02-27T02:20:35.376Z,8.57
2023-02-27T02:23:01.762Z,8.03
2023-02-27T02:25:46.813Z,8.73
2023-02-27T02:28:13.760Z,8.53
2023-02-27T02:30:43.436Z,10.53
2023-02-27T02:33:34.204Z,10.80
2023-02-27T02:36:15.425Z,12.77
2023-02-27T02:38:54.027Z,9.30
2023-02-27T02:41:41.263Z,7.60
2023-02-27T02:44:07.658Z,8.90
2023-02-27T02:46:37.190Z,7.50
2023-02-27T02:49:12.855Z,12.13
2023-02-27T02:51:49.052Z,12.17
2023-02-27T02:54:28.379Z,8.90
2023-02-27T02:57:09.218Z,10.43
2023-02-27T02:59:42.014Z,10.80
2023-02-27T03:02:10.739Z,8.60
2023-02-27T03:04:52.901Z,7.27
2023-02-27T03:07:27.221Z,11.40
2023-02-27T03:09:57.479Z,11.03
2023-02-27T03:12:25.145Z,10.10
2023-02-27T03:15:08.917Z,9.60
2023-02-27T03:17:41.018Z,9.63
2023-02-27T03:20:08.698Z,8.40
2023-02-27T03:22:37.779Z,6.43
2023-02-27T03:25:06.289Z,10.20
2023-02-27T03:27:37.758Z,9.73
2023-02-27T03:30:07.901Z,10.23
2023-02-27T03:32:45.843Z,7.10
2023-02-27T03:35:13.461Z,8.40
2023-02-27T03:37:49.481Z,9.93
2023-02-27T03:40:34.719Z,8.47
2023-02-27T03:43:03.423Z,8.83
2023-02-27T03:45:43.912Z,9.80
2023-02-27T03:48:10.378Z,9.17
2023-02-27T03:50:37.335Z,12.07
2023-02-27T03:53:06.445Z,8.03
2023-02-27T03:55:35.199Z,9.40
2023-02-27T03:58:01.740Z,11.00
2023-02-27T04:00:28.939Z,16.87
2023-02-27T04:02:57.472Z,7.47
2023-02-27T04:05:25.793Z,8.40
2023-02-27T04:08:12.743Z,6.60
2023-02-27T04:10:39.176Z,9.30
2023-02-27T04:13:05.949Z,11.20
2023-02-27T04:15:51.234Z,9.13
2023-02-27T04:18:35.984Z,7.67
2023-02-27T04:21:11.429Z,7.10
2023-02-27T04:23:40.209Z,11.50
2023-02-27T04:26:06.625Z,9.27
2023-02-27T04:28:48.439Z,7.97
2023-02-27T04:31:25.369Z,9.70
2023-02-27T04:33:57.702Z,8.90
2023-02-27T04:36:40.182Z,12.13
2023-02-27T04:39:11.008Z,8.53
2023-02-27T04:41:43.578Z,14.73
2023-02-27T04:44:11.325Z,9.23
2023-02-27T04:46:39.345Z,10.37
2023-02-27T04:49:10.078Z,12.83
2023-02-27T04:51:39.776Z,13.30
2023-02-27T04:54:14.632Z,11.77
2023-02-27T04:56:44.433Z,11.93
2023-02-27T04:59:15.151Z,10.63
2023-02-27T05:01:43.258Z,8.60
2023-02-27T05:04:11.252Z,10.00
2023-02-27T05:06:39.684Z,9.57
2023-02-27T05:09:35.643Z,11.40
2023-02-27T05:12:06.126Z,10.83
2023-02-27T05:14:38.575Z,12.77
2023-02-27T05:17:09.338Z,12.73
2023-02-27T05:19:38.396Z,11.37
2023-02-27T05:22:17.117Z,11.67
2023-02-27T05:25:02.009Z,13.07
2023-02-27T05:27:38.244Z,11.10
2023-02-27T05:30:13.838Z,11.67
2023-02-27T05:32:43.333Z,9.63
2023-02-27T05:35:12.809Z,10.23
2023-02-27T05:37:52.218Z,12.90
2023-02-27T05:40:21.817Z,13.17
2023-02-27T05:42:52.695Z,14.67
2023-02-27T05:45:21.331Z,9.83
2023-02-27T05:47:59.294Z,14.53
2023-02-27T05:50:27.972Z,11.67
2023-02-27T05:52:55.655Z,13.53
2023-02-27T05:55:23.461Z,8.13
2023-02-27T05:58:06.886Z,9.47
2023-02-27T06:00:35.464Z,13.13
2023-02-27T06:03:01.952Z,13.30
2023-02-27T06:05:28.849Z,14.67
2023-02-27T06:07:55.307Z,16.10
2023-02-27T06:10:22.037Z,12.10
2023-02-27T06:12:48.807Z,13.63
2023-02-27T06:15:15.320Z,13.77
2023-02-27T06:17:41.817Z,15.27
2023-02-27T06:20:08.945Z,13.83
2023-02-27T06:22:35.472Z,15.13
2023-02-27T06:25:02.096Z,14.30
2023-02-27T06:27:28.620Z,18.70
2023-02-27T06:29:55.035Z,20.00
2023-02-27T06:32:21.780Z,13.53
2023-02-27T06:34:48.164Z,21.23
2023-02-27T06:37:14.633Z,15.53
2023-02-27T06:39:41.065Z,22.77
2023-02-27T06:42:07.640Z,20.70
2023-02-27T06:44:34.085Z,20.37
2023-02-27T06:47:00.503Z,20.03
2023-02-27T06:49:26.990Z,15.73
2023-02-27T06:51:53.434Z,19.93
2023-02-27T06:54:19.896Z,23.30
2023-02-27T06:56:46.418Z,21.83
2023-02-27T06:59:12.924Z,18.57
2023-02-27T07:01:39.366Z,18.17
2023-02-27T07:04:05.798Z,22.53
2023-02-27T07:07:33.122Z,18.73
2023-02-27T07:09:18.901Z,14.93
2023-02-27T07:11:45.313Z,18.77
2023-02-27T07:14:12.516Z,20.90
2023-02-27T07:16:38.947Z,22.87
2023-02-27T07:19:06.975Z,17.97
2023-02-27T07:21:34.942Z,22.57
2023-02-27T07:24:02.765Z,22.30
2023-02-27T07:26:29.534Z,22.33
2023-02-27T07:28:56.163Z,27.03
2023-02-27T07:31:22.690Z,24.50
2023-02-27T07:33:49.154Z,20.60
2023-02-27T07:36:15.601Z,26.80
2023-02-27T07:38:42.019Z,24.47
2023-02-27T07:41:12.093Z,16.10
2023-02-27T07:43:42.338Z,21.50
2023-02-27T07:46:08.822Z,18.27
2023-02-27T07:48:35.267Z,17.87
2023-02-27T07:51:01.731Z,12.70
2023-02-27T07:53:28.448Z,16.97
2023-02-27T07:55:54.862Z,16.60
2023-02-27T07:58:21.353Z,16.67
2023-02-27T08:00:47.807Z,11.33
2023-02-27T08:03:14.278Z,15.27
2023-02-27T08:05:40.789Z,16.17
2023-02-27T08:08:07.198Z,13.17
2023-02-27T08:10:33.639Z,14.33
2023-02-27T08:13:00.161Z,13.90
2023-02-27T08:15:26.582Z,15.40
2023-02-27T08:17:52.973Z,15.30
2023-02-27T08:20:22.628Z,12.33
2023-02-27T08:22:49.214Z,10.77
2023-02-27T08:25:15.901Z,13.93
2023-02-27T08:27:42.366Z,10.10
2023-02-27T08:30:10.249Z,10.73
2023-02-27T08:32:38.554Z,11.30
2023-02-27T08:35:05.487Z,17.43
2023-02-27T08:37:31.938Z,13.27
2023-02-27T08:39:58.345Z,8.67
2023-02-27T08:42:26.823Z,11.37
2023-02-27T08:44:53.372Z,9.07
2023-02-27T08:47:19.859Z,8.93
2023-02-27T08:49:46.278Z,9.23
2023-02-27T08:52:12.736Z,8.73
2023-02-27T08:54:39.401Z,6.57
2023-02-27T08:57:05.866Z,7.63
2023-02-27T08:59:32.584Z,5.97
2023-02-27T09:01:59.118Z,5.07
2023-02-27T09:04:26.256Z,8.23
2023-02-27T09:06:53.748Z,5.87
2023-02-27T09:09:20.846Z,8.70
2023-02-27T09:11:48.266Z,6.50
2023-02-27T09:14:14.733Z,5.63
2023-02-27T09:16:41.495Z,5.37
2023-02-27T09:19:07.947Z,4.93
2023-02-27T09:21:34.427Z,4.60
2023-02-27T09:24:13.723Z,3.20
2023-02-27T09:26:46.693Z,3.53
2023-02-27T09:29:13.338Z,5.17
2023-02-27T09:31:39.959Z,4.03
2023-02-27T09:34:06.399Z,2.20
2023-02-27T09:36:32.987Z,6.17
2023-02-27T09:38:59.641Z,3.60
2023-02-27T09:41:52.368Z,4.57
2023-02-27T09:44:39.858Z,4.87
2023-02-27T09:47:14.139Z,4.03
2023-02-27T09:49:54.344Z,3.00
2023-02-27T09:52:20.992Z,5.63
2023-02-27T09:54:48.866Z,3.80
2023-02-27T09:57:18.643Z,3.43
2023-02-27T09:59:52.837Z,2.50
2023-02-27T10:02:22.428Z,4.43
2023-02-27T10:04:53.293Z,2.27
2023-02-27T10:07:55.568Z,3.83
2023-02-27T10:10:22.147Z,4.27
2023-02-27T10:13:02.333Z,2.83
2023-02-27T10:15:31.027Z,5.03
2023-02-27T10:18:02.285Z,4.00
2023-02-27T10:20:37.237Z,2.47
2023-02-27T10:23:08.391Z,3.47
2023-02-27T10:25:39.118Z,3.07
2023-02-27T10:28:11.644Z,3.47
2023-02-27T10:30:38.344Z,1.83
2023-02-27T10:33:04.844Z,4.07
2023-02-27T10:35:36.055Z,3.20
2023-02-27T10:38:11.840Z,3.10
2023-02-27T10:40:39.300Z,5.33
2023-02-27T10:43:07.148Z,3.63
2023-02-27T10:45:33.976Z,2.90
2023-02-27T10:48:04.622Z,3.10
2023-02-27T10:50:33.026Z,3.87
2023-02-27T10:53:03.220Z,3.10
2023-02-27T10:55:31.186Z,2.40
2023-02-27T10:57:58.400Z,3.73
2023-02-27T11:00:40.184Z,3.87
2023-02-27T11:03:07.590Z,5.93
2023-02-27T11:05:35.644Z,3.70
2023-02-27T11:08:20.990Z,2.77
2023-02-27T11:11:03.013Z,2.83
2023-02-27T11:13:30.841Z,2.00
2023-02-27T11:16:06.817Z,2.80
2023-02-27T11:18:34.078Z,4.27
2023-02-27T11:21:12.756Z,3.17
2023-02-27T11:23:49.301Z,3.17
2023-02-27T11:26:17.631Z,2.67
2023-02-27T11:28:44.111Z,4.17
2023-02-27T11:31:19.486Z,13.73
2023-02-27T11:33:50.604Z,4.40
2023-02-27T11:36:17.989Z,3.40
2023-02-27T11:38:52.809Z,4.40
2023-02-27T11:41:19.472Z,3.37
2023-02-27T11:43:49.154Z,2.53
2023-02-27T11:46:45.623Z,3.17
2023-02-27T11:49:30.519Z,5.07
2023-02-27T11:52:00.067Z,3.47
2023-02-27T11:54:45.407Z,3.37
2023-02-27T11:57:12.952Z,3.07
2023-02-27T11:59:43.342Z,3.17
2023-02-27T12:02:20.629Z,3.50
2023-02-27T12:04:47.141Z,2.90
2023-02-27T12:07:13.853Z,2.10
2023-02-27T12:09:40.312Z,3.53
2023-02-27T12:12:20.058Z,2.80
2023-02-27T12:15:00.538Z,5.03
2023-02-27T12:17:29.896Z,3.17
2023-02-27T12:20:17.617Z,5.95
2023-02-27T12:22:46.963Z,3.20
2023-02-27T12:25:22.546Z,3.20
2023-02-27T12:27:51.726Z,2.30
2023-02-27T12:30:22.184Z,3.33
2023-02-27T12:33:18.095Z,4.40
2023-02-27T12:35:47.146Z,3.67
2023-02-27T12:38:14.950Z,4.53
2023-02-27T12:41:04.732Z,4.13
2023-02-27T12:43:31.165Z,2.35
2023-02-27T12:46:06.727Z,2.72
2023-02-27T12:48:44.089Z,2.78
2023-02-27T12:51:26.330Z,3.03
2023-02-27T12:54:10.662Z,2.65
2023-02-27T12:56:54.782Z,2.90
2023-02-27T12:59:28.902Z,4.63
2023-02-27T13:02:18.588Z,3.13
2023-02-27T13:04:46.454Z,2.63
2023-02-27T13:07:29.039Z,2.15
2023-02-27T13:09:59.333Z,2.88
2023-02-27T13:12:41.253Z,2.83
2023-02-27T13:15:23.597Z,2.92
2023-02-27T13:18:03.504Z,1.90
2023-02-27T13:20:44.632Z,2.58
2023-02-27T13:23:17.209Z,4.38
2023-02-27T13:25:45.269Z,3.30
2023-02-27T13:28:15.201Z,2.72
2023-02-27T13:30:42.375Z,2.92
2023-02-27T13:33:25.038Z,2.97
2023-02-27T13:35:51.929Z,3.95
2023-02-27T13:38:45.425Z,5.82
2023-02-27T13:41:20.821Z,4.25
2023-02-27T13:43:52.399Z,2.90
2023-02-27T13:46:26.658Z,3.33
2023-02-27T13:48:56.253Z,2.65
2023-02-27T13:51:34.821Z,2.55
2023-02-27T13:54:13.581Z,2.15
2023-02-27T13:56:44.638Z,3.38
2023-02-27T13:59:12.633Z,3.60
2023-02-27T14:01:39.433Z,3.40
2023-02-27T14:04:07.515Z,8.32
2023-02-27T14:06:42.636Z,2.35
2023-02-27T14:09:15.065Z,4.90
2023-02-27T14:11:51.084Z,2.17
2023-02-27T14:14:36.467Z,1.53
2023-02-27T14:17:03.707Z,3.30
2023-02-27T14:19:34.248Z,2.05
2023-02-27T14:22:24.469Z,2.93
2023-02-27T14:25:02.588Z,2.95
2023-02-27T14:27:48.118Z,3.17
2023-02-27T14:30:26.244Z,2.73
2023-02-27T14:32:59.560Z,4.20
2023-02-27T14:35:26.834Z,6.55
2023-02-27T14:37:53.566Z,3.33
2023-02-27T14:40:29.957Z,3.90
2023-02-27T14:43:02.564Z,4.68
2023-02-27T14:45:30.909Z,3.38
2023-02-27T14:47:57.555Z,3.35
2023-02-27T14:50:37.273Z,1.77
2023-02-27T14:53:04.662Z,5.65
2023-02-27T14:55:32.531Z,2.78
2023-02-27T14:58:28.401Z,3.77
2023-02-27T15:01:02.446Z,2.38
2023-02-27T15:03:32.011Z,4.07
2023-02-27T15:06:01.105Z,8.40
2023-02-27T15:08:32.345Z,2.08
2023-02-27T15:10:59.219Z,4.47
2023-02-27T15:13:30.521Z,3.63
2023-02-27T15:16:16.596Z,2.87
2023-02-27T15:18:45.637Z,2.57
2023-02-27T15:21:14.550Z,2.77
2023-02-27T15:23:41.457Z,3.53
2023-02-27T15:26:11.508Z,2.57
2023-02-27T15:28:38.509Z,3.20
2023-02-27T15:31:05.141Z,2.03
2023-02-27T15:33:32.720Z,2.03
2023-02-27T15:35:59.486Z,2.47
2023-02-27T15:38:44.059Z,2.63
2023-02-27T15:41:11.518Z,4.73
2023-02-27T15:43:38.652Z,3.33
2023-02-27T15:46:05.212Z,4.53
2023-02-27T15:48:32.442Z,4.03
2023-02-27T15:50:59.541Z,3.27
2023-02-27T15:53:27.095Z,2.17
2023-02-27T15:55:55.266Z,4.50
2023-02-27T15:58:26.225Z,3.17
2023-02-27T16:01:01.628Z,4.87
2023-02-27T16:03:32.890Z,3.50
2023-02-27T16:06:00.302Z,5.10
2023-02-27T16:08:27.325Z,2.50
2023-02-27T16:10:53.862Z,3.17
2023-02-27T16:13:37.072Z,3.43
2023-02-27T16:16:05.181Z,3.67
2023-02-27T16:18:45.878Z,5.27
2023-02-27T16:21:16.407Z,12.33
2023-02-27T16:23:43.154Z,3.83
2023-02-27T16:26:27.576Z,6.60
2023-02-27T16:29:00.914Z,3.50
2023-02-27T16:31:35.783Z,3.53
2023-02-27T16:34:13.136Z,3.23
2023-02-27T16:36:51.200Z,3.57
2023-02-27T16:39:17.673Z,4.37
2023-02-27T16:41:44.094Z,3.20
2023-02-27T16:44:10.500Z,8.97
2023-02-27T16:46:37.278Z,8.77
2023-02-27T16:49:18.955Z,4.83
2023-02-27T16:51:47.204Z,6.73
2023-02-27T16:54:15.397Z,6.20
2023-02-27T16:56:42.646Z,6.60
2023-02-27T16:59:31.134Z,4.20
2023-02-27T17:01:57.958Z,8.70
2023-02-27T17:04:26.187Z,5.00
2023-02-27T17:06:53.148Z,4.33
2023-02-27T17:09:19.782Z,6.80
2023-02-27T17:11:46.225Z,5.70
2023-02-27T17:14:12.776Z,4.67
2023-02-27T17:16:39.373Z,4.97
2023-02-27T17:19:05.872Z,4.97
2023-02-27T17:21:32.783Z,7.83
2023-02-27T17:23:59.231Z,5.03
2023-02-27T17:26:27.053Z,3.40
2023-02-27T17:28:54.725Z,3.90
2023-02-27T17:31:23.038Z,4.77
2023-02-27T17:33:53.572Z,4.63
2023-02-27T17:36:21.056Z,3.77
2023-02-27T17:38:48.904Z,4.07
2023-02-27T17:41:15.445Z,5.90
2023-02-27T17:43:41.895Z,3.27
2023-02-27T17:46:09.271Z,4.47
2023-02-27T17:48:36.780Z,3.93
2023-02-27T17:51:04.529Z,5.43
2023-02-27T17:53:30.990Z,3.50
2023-02-27T17:55:57.533Z,5.63
2023-02-27T17:58:24.001Z,5.80
2023-02-27T18:00:50.440Z,6.73
2023-02-27T18:03:16.959Z,11.10
2023-02-27T18:05:52.983Z,6.67
2023-02-27T18:08:19.485Z,4.80
2023-02-27T18:10:46.815Z,5.17
2023-02-27T18:13:13.721Z,4.07
2023-02-27T18:15:40.256Z,4.50
2023-02-27T18:18:06.801Z,4.87
2023-02-27T18:20:33.268Z,6.80
2023-02-27T18:22:59.960Z,4.77
2023-02-27T18:25:26.579Z,6.43
2023-02-27T18:27:54.163Z,5.40
2023-02-27T18:30:20.674Z,6.33
2023-02-27T18:32:47.130Z,4.93
2023-02-27T18:35:13.637Z,6.77
2023-02-27T18:37:40.499Z,4.90
2023-02-27T18:40:07.639Z,5.87
2023-02-27T18:42:34.143Z,5.90
2023-02-27T18:45:00.640Z,5.63
2023-02-27T18:47:30.293Z,7.77
2023-02-27T18:49:56.965Z,5.77
2023-02-27T18:52:23.504Z,5.50
2023-02-27T18:54:49.972Z,5.83
2023-02-27T18:57:16.701Z,4.90
2023-02-27T18:59:46.357Z,5.10
2023-02-27T19:02:17.012Z,6.17
2023-02-27T19:04:43.439Z,5.63
2023-02-27T19:07:09.948Z,5.23
2023-02-27T19:09:36.390Z,5.27
2023-02-27T19:12:02.911Z,5.37
2023-02-27T19:14:29.421Z,6.10
2023-02-27T19:16:56.835Z,7.03
2023-02-27T19:19:23.313Z,6.10
2023-02-27T19:21:49.811Z,6.63
2023-02-27T19:24:19.244Z,5.60
2023-02-27T19:26:45.978Z,7.77
2023-02-27T19:29:12.665Z,8.33
2023-02-27T19:31:39.106Z,5.70
2023-02-27T19:34:05.680Z,7.63
2023-02-27T19:36:34.472Z,5.37
2023-02-27T19:39:01.659Z,6.03
2023-02-27T19:41:28.225Z,6.60
2023-02-27T19:43:55.128Z,7.03
2023-02-27T19:46:23.944Z,6.67
2023-02-27T19:48:51.250Z,7.70
2023-02-27T19:51:17.754Z,6.33
2023-02-27T19:53:50.799Z,5.83
2023-02-27T19:56:18.546Z,6.37
2023-02-27T19:58:45.591Z,7.13
2023-02-27T20:01:12.328Z,9.17
2023-02-27T20:03:43.416Z,9.23
2023-02-27T20:06:20.719Z,7.57
2023-02-27T20:08:47.192Z,6.83
2023-02-27T20:11:15.574Z,6.13
2023-02-27T20:13:41.960Z,8.07
2023-02-27T20:16:09.031Z,5.93
2023-02-27T20:18:39.332Z,5.37
2023-02-27T20:21:09.367Z,4.97
2023-02-27T20:23:37.646Z,6.30
2023-02-27T20:26:16.231Z,5.87
2023-02-27T20:28:42.944Z,8.07
2023-02-27T20:31:10.113Z,4.63
2023-02-27T20:33:37.372Z,5.13
2023-02-27T20:36:04.774Z,6.23
2023-02-27T20:38:32.283Z,4.70
2023-02-27T20:40:58.977Z,7.73
2023-02-27T20:43:25.572Z,5.57
2023-02-27T20:45:52.061Z,6.27
2023-02-27T20:48:18.582Z,5.70
2023-02-27T20:50:45.002Z,6.53
2023-02-27T20:53:11.399Z,7.33
2023-02-27T20:55:37.793Z,5.70
2023-02-27T20:58:04.266Z,8.47
2023-02-27T21:00:30.739Z,5.03
2023-02-27T21:02:57.182Z,4.67
2023-02-27T21:05:23.630Z,6.50
2023-02-27T21:07:50.657Z,5.23
2023-02-27T21:10:17.332Z,5.13
2023-02-27T21:12:44.963Z,4.90
2023-02-27T21:15:11.596Z,5.10
2023-02-27T21:17:38.032Z,6.40
2023-02-27T21:20:06.870Z,4.70
2023-02-27T21:22:33.397Z,5.40
2023-02-27T21:24:59.895Z,5.97
2023-02-27T21:27:26.422Z,7.10
2023-02-27T21:29:52.938Z,5.53
2023-02-27T21:32:19.431Z,5.33
2023-02-27T21:34:46.204Z,5.17
2023-02-27T21:37:15.732Z,6.63
2023-02-27T21:39:42.234Z,4.90
2023-02-27T21:42:08.998Z,5.60
2023-02-27T21:44:38.345Z,4.90
2023-02-27T21:47:10.391Z,4.50
2023-02-27T21:49:42.052Z,6.07
2023-02-27T21:52:11.137Z,6.83
2023-02-27T21:54:37.970Z,6.57
2023-02-27T21:57:04.727Z,6.90
2023-02-27T21:59:31.226Z,5.33
2023-02-27T22:01:58.045Z,5.67
2023-02-27T22:04:24.835Z,6.90
2023-02-27T22:06:52.235Z,7.13
2023-02-27T22:09:19.291Z,5.43
2023-02-27T22:11:45.941Z,6.67
2023-02-27T22:14:12.992Z,7.40
2023-02-27T22:16:39.908Z,9.13
2023-02-27T22:19:07.556Z,5.43
2023-02-27T22:21:34.555Z,7.67
2023-02-27T22:24:00.986Z,7.30
2023-02-27T22:26:28.259Z,5.10
2023-02-27T22:28:56.275Z,5.47
2023-02-27T22:31:33.541Z,6.17
2023-02-27T22:34:02.167Z,7.27
2023-02-27T22:36:29.227Z,7.03
2023-02-27T22:38:56.173Z,6.33
2023-02-27T22:41:24.618Z,6.00
2023-02-27T22:43:51.106Z,7.50
2023-02-27T22:46:23.884Z,5.17
2023-02-27T22:48:53.508Z,5.07
2023-02-27T22:51:19.984Z,5.27
2023-02-27T22:53:46.527Z,5.77
2023-02-27T22:56:14.447Z,4.80
2023-02-27T22:58:41.285Z,9.43
2023-02-27T23:01:15.165Z,5.93
2023-02-27T23:03:42.220Z,6.33
2023-02-27T23:06:10.901Z,7.60
2023-02-27T23:08:37.901Z,6.33
2023-02-27T23:11:05.078Z,6.37
2023-02-27T23:13:34.488Z,6.57
2023-02-27T23:16:01.584Z,5.37
2023-02-27T23:18:28.340Z,4.93
2023-02-27T23:20:54.845Z,5.00
2023-02-27T23:23:21.506Z,7.30
2023-02-27T23:25:48.025Z,8.17
2023-02-27T23:28:14.482Z,6.23
2023-02-27T23:30:40.921Z,8.67
2023-02-27T23:33:07.487Z,8.37
2023-02-27T23:35:33.995Z,7.23
2023-02-27T23:38:00.713Z,7.07
2023-02-27T23:40:27.722Z,9.40
2023-02-27T23:43:14.916Z,8.17
2023-02-27T23:45:41.605Z,11.20
2023-02-27T23:48:08.686Z,9.07
2023-02-27T23:50:36.605Z,9.60
2023-02-27T23:53:04.181Z,7.70
2023-02-27T23:55:31.789Z,8.67
2023-02-27T23:57:59.657Z,7.23
